sensor_id;sensor_type;location;lat;lon;timestamp;P1;durP1;ratioP1;P2;durP2;ratioP2
57093;SDS011;42970;50.996;3.706;2023-09-30T00:30:18;18.20;;;6.40;;
57093;SDS011;42970;50.996;3.706;2023-09-30T00:32:43;13.70;;;6.45;;
57093;SDS011;42970;50.996;3.706;2023-09-30T00:35:09;12.80;;;5.88;;
57093;SDS011;42970;50.996;3.706;2023-09-30T00:37:39;18.95;;;5.90;;
57093;SDS011;42970;50.996;3.706;2023-09-30T00:40:06;13.27;;;5.18;;
57093;SDS011;42970;50.996;3.706;2023-09-30T00:42:33;10.98;;;5.03;;
57093;SDS011;42970;50.996;3.706;2023-09-30T00:44:58;9.32;;;5.35;;
57093;SDS011;42970;50.996;3.706;2023-09-30T00:47:24;10.73;;;5.30;;
57093;SDS011;42970;50.996;3.706;2023-09-30T00:49:51;20.47;;;5.63;;
57093;SDS011;42970;50.996;3.706;2023-09-30T00:52:18;18.13;;;5.78;;
57093;SDS011;42970;50.996;3.706;2023-09-30T00:54:44;12.80;;;5.72;;
57093;SDS011;42970;50.996;3.706;2023-09-30T00:57:12;16.90;;;6.28;;
57093;SDS011;42970;50.996;3.706;2023-09-30T00:59:38;15.35;;;5.72;;
57093;SDS011;42970;50.996;3.706;2023-09-30T01:02:04;12.80;;;6.15;;
57093;SDS011;42970;50.996;3.706;2023-09-30T01:04:31;18.02;;;6.03;;
57093;SDS011;42970;50.996;3.706;2023-09-30T01:06:58;11.68;;;5.68;;
57093;SDS011;42970;50.996;3.706;2023-09-30T01:09:23;18.63;;;4.80;;
57093;SDS011;42970;50.996;3.706;2023-09-30T01:11:49;15.30;;;4.90;;
57093;SDS011;42970;50.996;3.706;2023-09-30T01:14:25;12.25;;;4.60;;
57093;SDS011;42970;50.996;3.706;2023-09-30T01:16:52;14.50;;;5.68;;
57093;SDS011;42970;50.996;3.706;2023-09-30T01:19:18;13.07;;;5.30;;
57093;SDS011;42970;50.996;3.706;2023-09-30T01:21:43;18.05;;;5.68;;
57093;SDS011;42970;50.996;3.706;2023-09-30T01:24:14;10.90;;;5.15;;
57093;SDS011;42970;50.996;3.706;2023-09-30T01:26:40;11.65;;;5.30;;
57093;SDS011;42970;50.996;3.706;2023-09-30T01:29:05;14.65;;;5.20;;
57093;SDS011;42970;50.996;3.706;2023-09-30T01:31:31;9.55;;;4.20;;
57093;SDS011;42970;50.996;3.706;2023-09-30T01:33:56;9.68;;;5.22;;
57093;SDS011;42970;50.996;3.706;2023-09-30T01:36:22;12.02;;;4.18;;
57093;SDS011;42970;50.996;3.706;2023-09-30T01:38:47;11.50;;;4.68;;
57093;SDS011;42970;50.996;3.706;2023-09-30T01:41:13;12.00;;;4.28;;
57093;SDS011;42970;50.996;3.706;2023-09-30T01:43:38;10.65;;;4.35;;
57093;SDS011;42970;50.996;3.706;2023-09-30T01:46:04;11.50;;;4.40;;
57093;SDS011;42970;50.996;3.706;2023-09-30T01:48:31;17.40;;;5.20;;
57093;SDS011;42970;50.996;3.706;2023-09-30T01:50:56;9.82;;;4.85;;
57093;SDS011;42970;50.996;3.706;2023-09-30T01:53:22;9.75;;;4.82;;
57093;SDS011;42970;50.996;3.706;2023-09-30T01:55:48;10.60;;;4.50;;
57093;SDS011;42970;50.996;3.706;2023-09-30T01:58:13;10.27;;;3.83;;
57093;SDS011;42970;50.996;3.706;2023-09-30T02:00:39;9.35;;;4.38;;
57093;SDS011;42970;50.996;3.706;2023-09-30T02:03:04;13.32;;;5.10;;
57093;SDS011;42970;50.996;3.706;2023-09-30T02:05:30;11.27;;;4.53;;
57093;SDS011;42970;50.996;3.706;2023-09-30T02:07:55;13.30;;;4.43;;
57093;SDS011;42970;50.996;3.706;2023-09-30T02:10:21;13.80;;;5.28;;
57093;SDS011;42970;50.996;3.706;2023-09-30T02:12:47;11.38;;;4.82;;
57093;SDS011;42970;50.996;3.706;2023-09-30T02:15:13;14.65;;;4.68;;
57093;SDS011;42970;50.996;3.706;2023-09-30T02:17:39;15.25;;;4.30;;
57093;SDS011;42970;50.996;3.706;2023-09-30T02:20:05;9.32;;;4.22;;
57093;SDS011;42970;50.996;3.706;2023-09-30T02:22:38;11.27;;;4.45;;
57093;SDS011;42970;50.996;3.706;2023-09-30T02:25:04;12.52;;;3.63;;
57093;SDS011;42970;50.996;3.706;2023-09-30T02:27:32;10.27;;;3.70;;
57093;SDS011;42970;50.996;3.706;2023-09-30T02:29:58;10.10;;;3.78;;
57093;SDS011;42970;50.996;3.706;2023-09-30T02:32:24;11.68;;;4.78;;
57093;SDS011;42970;50.996;3.706;2023-09-30T02:34:49;12.95;;;3.97;;
57093;SDS011;42970;50.996;3.706;2023-09-30T02:37:15;8.95;;;3.58;;
57093;SDS011;42970;50.996;3.706;2023-09-30T02:39:43;15.60;;;4.32;;
57093;SDS011;42970;50.996;3.706;2023-09-30T02:42:10;18.17;;;4.85;;
57093;SDS011;42970;50.996;3.706;2023-09-30T02:44:35;13.40;;;4.03;;
57093;SDS011;42970;50.996;3.706;2023-09-30T02:47:02;12.13;;;4.03;;
57093;SDS011;42970;50.996;3.706;2023-09-30T02:49:27;13.82;;;4.25;;
57093;SDS011;42970;50.996;3.706;2023-09-30T02:51:53;12.27;;;4.18;;
57093;SDS011;42970;50.996;3.706;2023-09-30T02:54:18;9.68;;;3.65;;
57093;SDS011;42970;50.996;3.706;2023-09-30T02:56:44;8.55;;;4.03;;
57093;SDS011;42970;50.996;3.706;2023-09-30T02:59:11;13.05;;;4.40;;
57093;SDS011;42970;50.996;3.706;2023-09-30T03:01:38;15.23;;;5.35;;
57093;SDS011;42970;50.996;3.706;2023-09-30T03:04:03;9.48;;;3.67;;
57093;SDS011;42970;50.996;3.706;2023-09-30T03:06:32;17.15;;;4.22;;
57093;SDS011;42970;50.996;3.706;2023-09-30T03:09:02;16.10;;;4.10;;
57093;SDS011;42970;50.996;3.706;2023-09-30T03:11:29;19.00;;;5.65;;
57093;SDS011;42970;50.996;3.706;2023-09-30T03:13:56;15.00;;;4.63;;
57093;SDS011;42970;50.996;3.706;2023-09-30T03:16:22;12.18;;;5.38;;
57093;SDS011;42970;50.996;3.706;2023-09-30T03:18:49;20.00;;;4.55;;
57093;SDS011;42970;50.996;3.706;2023-09-30T03:21:15;9.40;;;3.40;;
57093;SDS011;42970;50.996;3.706;2023-09-30T03:23:41;8.68;;;3.63;;
57093;SDS011;42970;50.996;3.706;2023-09-30T03:26:07;13.85;;;3.65;;
57093;SDS011;42970;50.996;3.706;2023-09-30T03:28:35;9.25;;;3.42;;
57093;SDS011;42970;50.996;3.706;2023-09-30T03:31:02;22.35;;;3.97;;
57093;SDS011;42970;50.996;3.706;2023-09-30T03:33:30;17.83;;;4.03;;
57093;SDS011;42970;50.996;3.706;2023-09-30T03:35:57;12.07;;;4.07;;
57093;SDS011;42970;50.996;3.706;2023-09-30T03:38:23;12.10;;;4.03;;
57093;SDS011;42970;50.996;3.706;2023-09-30T03:40:49;16.38;;;4.65;;
57093;SDS011;42970;50.996;3.706;2023-09-30T03:43:15;16.65;;;4.88;;
57093;SDS011;42970;50.996;3.706;2023-09-30T03:45:41;12.65;;;4.40;;
57093;SDS011;42970;50.996;3.706;2023-09-30T03:48:07;19.45;;;3.85;;
57093;SDS011;42970;50.996;3.706;2023-09-30T03:50:33;16.00;;;3.95;;
57093;SDS011;42970;50.996;3.706;2023-09-30T03:53:02;19.85;;;4.57;;
57093;SDS011;42970;50.996;3.706;2023-09-30T03:55:32;13.48;;;4.38;;
57093;SDS011;42970;50.996;3.706;2023-09-30T03:57:59;12.27;;;4.68;;
57093;SDS011;42970;50.996;3.706;2023-09-30T04:00:25;13.13;;;4.75;;
57093;SDS011;42970;50.996;3.706;2023-09-30T04:02:51;14.38;;;5.10;;
57093;SDS011;42970;50.996;3.706;2023-09-30T04:05:23;20.25;;;4.95;;
57093;SDS011;42970;50.996;3.706;2023-09-30T04:07:57;12.23;;;5.30;;
57093;SDS011;42970;50.996;3.706;2023-09-30T04:10:22;14.43;;;5.32;;
57093;SDS011;42970;50.996;3.706;2023-09-30T04:12:48;15.73;;;5.40;;
57093;SDS011;42970;50.996;3.706;2023-09-30T04:15:15;14.65;;;4.80;;
57093;SDS011;42970;50.996;3.706;2023-09-30T04:17:40;7.38;;;3.85;;
57093;SDS011;42970;50.996;3.706;2023-09-30T04:20:07;172.65;;;4.97;;
57093;SDS011;42970;50.996;3.706;2023-09-30T04:22:42;108.57;;;5.45;;
57093;SDS011;42970;50.996;3.706;2023-09-30T04:25:11;7.22;;;3.50;;
57093;SDS011;42970;50.996;3.706;2023-09-30T04:27:37;11.63;;;4.63;;
57093;SDS011;42970;50.996;3.706;2023-09-30T04:30:03;18.38;;;5.80;;
57093;SDS011;42970;50.996;3.706;2023-09-30T04:32:37;23.17;;;5.88;;
57093;SDS011;42970;50.996;3.706;2023-09-30T04:35:06;13.88;;;5.13;;
57093;SDS011;42970;50.996;3.706;2023-09-30T04:37:35;19.10;;;6.72;;
57093;SDS011;42970;50.996;3.706;2023-09-30T04:40:07;22.95;;;6.82;;
57093;SDS011;42970;50.996;3.706;2023-09-30T04:42:41;22.35;;;6.82;;
57093;SDS011;42970;50.996;3.706;2023-09-30T04:45:10;25.92;;;7.47;;
57093;SDS011;42970;50.996;3.706;2023-09-30T04:47:36;22.30;;;6.43;;
57093;SDS011;42970;50.996;3.706;2023-09-30T04:50:04;32.88;;;6.70;;
57093;SDS011;42970;50.996;3.706;2023-09-30T04:52:36;19.63;;;6.43;;
57093;SDS011;42970;50.996;3.706;2023-09-30T04:55:04;29.63;;;6.45;;
57093;SDS011;42970;50.996;3.706;2023-09-30T04:57:30;22.10;;;5.70;;
57093;SDS011;42970;50.996;3.706;2023-09-30T04:59:56;17.75;;;6.50;;
57093;SDS011;42970;50.996;3.706;2023-09-30T05:02:23;20.98;;;6.60;;
57093;SDS011;42970;50.996;3.706;2023-09-30T05:04:49;16.58;;;6.93;;
57093;SDS011;42970;50.996;3.706;2023-09-30T05:07:14;25.02;;;6.82;;
57093;SDS011;42970;50.996;3.706;2023-09-30T05:09:40;22.13;;;7.03;;
57093;SDS011;42970;50.996;3.706;2023-09-30T05:12:06;17.75;;;7.13;;
57093;SDS011;42970;50.996;3.706;2023-09-30T05:14:31;25.08;;;6.53;;
57093;SDS011;42970;50.996;3.706;2023-09-30T05:16:58;21.10;;;7.68;;
57093;SDS011;42970;50.996;3.706;2023-09-30T05:19:24;30.40;;;8.20;;
57093;SDS011;42970;50.996;3.706;2023-09-30T05:21:49;18.63;;;7.35;;
57093;SDS011;42970;50.996;3.706;2023-09-30T05:24:15;18.50;;;6.43;;
57093;SDS011;42970;50.996;3.706;2023-09-30T05:26:44;25.50;;;7.05;;
57093;SDS011;42970;50.996;3.706;2023-09-30T05:29:10;12.57;;;6.90;;
57093;SDS011;42970;50.996;3.706;2023-09-30T05:31:35;17.75;;;7.20;;
57093;SDS011;42970;50.996;3.706;2023-09-30T05:34:02;18.45;;;7.25;;
57093;SDS011;42970;50.996;3.706;2023-09-30T05:36:27;16.45;;;6.60;;
57093;SDS011;42970;50.996;3.706;2023-09-30T05:38:54;20.98;;;7.38;;
57093;SDS011;42970;50.996;3.706;2023-09-30T05:41:20;22.20;;;7.20;;
57093;SDS011;42970;50.996;3.706;2023-09-30T05:43:46;22.48;;;6.45;;
57093;SDS011;42970;50.996;3.706;2023-09-30T05:46:12;16.88;;;6.07;;
57093;SDS011;42970;50.996;3.706;2023-09-30T05:48:38;18.48;;;6.55;;
57093;SDS011;42970;50.996;3.706;2023-09-30T05:51:04;15.00;;;6.45;;
57093;SDS011;42970;50.996;3.706;2023-09-30T05:53:31;25.77;;;7.70;;
57093;SDS011;42970;50.996;3.706;2023-09-30T05:55:58;36.42;;;15.05;;
57093;SDS011;42970;50.996;3.706;2023-09-30T05:58:24;15.90;;;6.72;;
57093;SDS011;42970;50.996;3.706;2023-09-30T06:00:51;22.90;;;8.10;;
57093;SDS011;42970;50.996;3.706;2023-09-30T06:03:17;18.08;;;6.53;;
57093;SDS011;42970;50.996;3.706;2023-09-30T06:05:42;27.20;;;6.00;;
57093;SDS011;42970;50.996;3.706;2023-09-30T06:08:09;21.38;;;6.78;;
57093;SDS011;42970;50.996;3.706;2023-09-30T06:10:36;18.23;;;6.13;;
57093;SDS011;42970;50.996;3.706;2023-09-30T06:13:03;16.08;;;4.20;;
57093;SDS011;42970;50.996;3.706;2023-09-30T06:15:29;13.63;;;3.92;;
57093;SDS011;42970;50.996;3.706;2023-09-30T06:17:57;25.40;;;3.70;;
57093;SDS011;42970;50.996;3.706;2023-09-30T06:20:22;7.33;;;3.73;;
57093;SDS011;42970;50.996;3.706;2023-09-30T06:22:51;16.17;;;5.13;;
57093;SDS011;42970;50.996;3.706;2023-09-30T06:25:19;12.70;;;5.25;;
57093;SDS011;42970;50.996;3.706;2023-09-30T06:27:47;13.90;;;5.83;;
57093;SDS011;42970;50.996;3.706;2023-09-30T06:30:15;18.33;;;5.78;;
57093;SDS011;42970;50.996;3.706;2023-09-30T06:32:42;21.75;;;6.60;;
57093;SDS011;42970;50.996;3.706;2023-09-30T06:35:08;19.33;;;6.05;;
57093;SDS011;42970;50.996;3.706;2023-09-30T06:37:37;20.17;;;6.20;;
57093;SDS011;42970;50.996;3.706;2023-09-30T06:40:07;17.52;;;5.38;;
57093;SDS011;42970;50.996;3.706;2023-09-30T06:42:34;22.65;;;7.35;;
57093;SDS011;42970;50.996;3.706;2023-09-30T06:45:01;19.63;;;6.63;;
57093;SDS011;42970;50.996;3.706;2023-09-30T06:47:31;21.55;;;6.68;;
57093;SDS011;42970;50.996;3.706;2023-09-30T06:50:00;11.45;;;5.22;;
57093;SDS011;42970;50.996;3.706;2023-09-30T06:52:33;15.57;;;5.30;;
57093;SDS011;42970;50.996;3.706;2023-09-30T06:55:06;11.65;;;5.10;;
57093;SDS011;42970;50.996;3.706;2023-09-30T06:57:33;28.55;;;6.80;;
57093;SDS011;42970;50.996;3.706;2023-09-30T07:00:00;21.40;;;7.07;;
57093;SDS011;42970;50.996;3.706;2023-09-30T07:02:26;20.30;;;5.57;;
57093;SDS011;42970;50.996;3.706;2023-09-30T07:04:52;15.52;;;6.38;;
57093;SDS011;42970;50.996;3.706;2023-09-30T07:07:18;19.27;;;6.38;;
57093;SDS011;42970;50.996;3.706;2023-09-30T07:09:44;22.63;;;6.50;;
57093;SDS011;42970;50.996;3.706;2023-09-30T07:12:09;22.08;;;6.78;;
57093;SDS011;42970;50.996;3.706;2023-09-30T07:14:35;20.95;;;7.07;;
57093;SDS011;42970;50.996;3.706;2023-09-30T07:17:00;29.02;;;7.70;;
57093;SDS011;42970;50.996;3.706;2023-09-30T07:19:26;24.05;;;8.15;;
57093;SDS011;42970;50.996;3.706;2023-09-30T07:21:51;26.63;;;8.25;;
57093;SDS011;42970;50.996;3.706;2023-09-30T07:24:17;30.40;;;7.72;;
57093;SDS011;42970;50.996;3.706;2023-09-30T07:26:42;30.27;;;8.45;;
57093;SDS011;42970;50.996;3.706;2023-09-30T07:29:08;36.30;;;9.43;;
57093;SDS011;42970;50.996;3.706;2023-09-30T07:31:35;33.33;;;8.82;;
57093;SDS011;42970;50.996;3.706;2023-09-30T07:34:01;28.85;;;8.10;;
57093;SDS011;42970;50.996;3.706;2023-09-30T07:36:27;30.27;;;9.18;;
57093;SDS011;42970;50.996;3.706;2023-09-30T07:38:52;42.90;;;8.50;;
57093;SDS011;42970;50.996;3.706;2023-09-30T07:41:18;31.15;;;8.15;;
57093;SDS011;42970;50.996;3.706;2023-09-30T07:43:43;22.92;;;7.80;;
57093;SDS011;42970;50.996;3.706;2023-09-30T07:46:09;26.65;;;10.02;;
57093;SDS011;42970;50.996;3.706;2023-09-30T07:48:34;36.20;;;7.55;;
57093;SDS011;42970;50.996;3.706;2023-09-30T07:51:00;41.72;;;7.45;;
57093;SDS011;42970;50.996;3.706;2023-09-30T07:53:27;28.75;;;7.53;;
57093;SDS011;42970;50.996;3.706;2023-09-30T07:55:53;46.38;;;9.20;;
57093;SDS011;42970;50.996;3.706;2023-09-30T07:58:19;42.25;;;7.93;;
57093;SDS011;42970;50.996;3.706;2023-09-30T08:00:45;29.45;;;7.72;;
57093;SDS011;42970;50.996;3.706;2023-09-30T08:03:11;30.55;;;6.95;;
57093;SDS011;42970;50.996;3.706;2023-09-30T08:05:37;35.55;;;7.47;;
57093;SDS011;42970;50.996;3.706;2023-09-30T08:08:03;30.13;;;8.18;;
57093;SDS011;42970;50.996;3.706;2023-09-30T08:10:29;35.33;;;7.18;;
57093;SDS011;42970;50.996;3.706;2023-09-30T08:12:57;39.03;;;7.93;;
57093;SDS011;42970;50.996;3.706;2023-09-30T08:15:24;34.53;;;7.35;;
57093;SDS011;42970;50.996;3.706;2023-09-30T08:17:50;33.15;;;7.25;;
57093;SDS011;42970;50.996;3.706;2023-09-30T08:20:16;44.85;;;8.20;;
57093;SDS011;42970;50.996;3.706;2023-09-30T08:22:41;43.30;;;8.57;;
57093;SDS011;42970;50.996;3.706;2023-09-30T08:25:07;39.92;;;8.48;;
57093;SDS011;42970;50.996;3.706;2023-09-30T08:27:34;31.60;;;7.43;;
57093;SDS011;42970;50.996;3.706;2023-09-30T08:30:01;35.85;;;7.63;;
57093;SDS011;42970;50.996;3.706;2023-09-30T08:32:31;40.50;;;9.07;;
57093;SDS011;42970;50.996;3.706;2023-09-30T08:34:57;28.75;;;7.88;;
57093;SDS011;42970;50.996;3.706;2023-09-30T08:37:23;24.13;;;7.70;;
57093;SDS011;42970;50.996;3.706;2023-09-30T08:39:49;29.92;;;7.97;;
57093;SDS011;42970;50.996;3.706;2023-09-30T08:42:15;32.42;;;9.45;;
57093;SDS011;42970;50.996;3.706;2023-09-30T08:44:43;32.65;;;9.32;;
57093;SDS011;42970;50.996;3.706;2023-09-30T08:47:09;31.30;;;9.38;;
57093;SDS011;42970;50.996;3.706;2023-09-30T08:49:39;32.13;;;10.60;;
57093;SDS011;42970;50.996;3.706;2023-09-30T08:52:06;45.65;;;12.27;;
57093;SDS011;42970;50.996;3.706;2023-09-30T08:54:34;34.15;;;10.15;;
57093;SDS011;42970;50.996;3.706;2023-09-30T08:57:00;35.80;;;11.25;;
57093;SDS011;42970;50.996;3.706;2023-09-30T08:59:25;39.28;;;12.27;;
57093;SDS011;42970;50.996;3.706;2023-09-30T09:01:52;41.58;;;12.25;;
57093;SDS011;42970;50.996;3.706;2023-09-30T09:04:18;32.38;;;10.50;;
57093;SDS011;42970;50.996;3.706;2023-09-30T09:06:43;28.08;;;10.40;;
57093;SDS011;42970;50.996;3.706;2023-09-30T09:09:13;38.95;;;10.95;;
57093;SDS011;42970;50.996;3.706;2023-09-30T09:11:42;29.40;;;9.82;;
57093;SDS011;42970;50.996;3.706;2023-09-30T09:14:11;31.05;;;11.45;;
57093;SDS011;42970;50.996;3.706;2023-09-30T09:16:37;24.70;;;11.75;;
57093;SDS011;42970;50.996;3.706;2023-09-30T09:19:15;36.30;;;11.32;;
57093;SDS011;42970;50.996;3.706;2023-09-30T09:21:52;29.95;;;10.60;;
57093;SDS011;42970;50.996;3.706;2023-09-30T09:24:30;29.65;;;10.35;;
57093;SDS011;42970;50.996;3.706;2023-09-30T09:27:10;34.97;;;9.73;;
57093;SDS011;42970;50.996;3.706;2023-09-30T09:29:38;19.02;;;9.00;;
57093;SDS011;42970;50.996;3.706;2023-09-30T09:32:11;31.52;;;9.23;;
57093;SDS011;42970;50.996;3.706;2023-09-30T09:34:37;30.60;;;9.68;;
57093;SDS011;42970;50.996;3.706;2023-09-30T09:37:21;34.80;;;10.27;;
57093;SDS011;42970;50.996;3.706;2023-09-30T09:39:50;26.50;;;9.02;;
57093;SDS011;42970;50.996;3.706;2023-09-30T09:42:26;29.15;;;9.02;;
57093;SDS011;42970;50.996;3.706;2023-09-30T09:44:56;25.90;;;8.75;;
57093;SDS011;42970;50.996;3.706;2023-09-30T09:47:24;28.25;;;9.48;;
57093;SDS011;42970;50.996;3.706;2023-09-30T09:49:50;46.75;;;10.27;;
57093;SDS011;42970;50.996;3.706;2023-09-30T09:54:44;29.75;;;10.02;;
57093;SDS011;42970;50.996;3.706;2023-09-30T09:57:11;27.40;;;10.40;;
57093;SDS011;42970;50.996;3.706;2023-09-30T09:59:38;27.73;;;7.55;;
57093;SDS011;42970;50.996;3.706;2023-09-30T10:02:09;32.57;;;7.83;;
57093;SDS011;42970;50.996;3.706;2023-09-30T10:04:36;31.35;;;7.30;;
57093;SDS011;42970;50.996;3.706;2023-09-30T10:09:29;24.70;;;7.60;;
57093;SDS011;42970;50.996;3.706;2023-09-30T10:11:58;22.25;;;7.68;;
57093;SDS011;42970;50.996;3.706;2023-09-30T10:14:32;17.10;;;6.80;;
57093;SDS011;42970;50.996;3.706;2023-09-30T10:16:58;22.35;;;6.72;;
57093;SDS011;42970;50.996;3.706;2023-09-30T10:19:24;20.35;;;6.75;;
57093;SDS011;42970;50.996;3.706;2023-09-30T10:29:47;22.33;;;5.57;;
57093;SDS011;42970;50.996;3.706;2023-09-30T10:34:47;11.25;;;5.25;;
57093;SDS011;42970;50.996;3.706;2023-09-30T10:37:23;17.50;;;5.65;;
57093;SDS011;42970;50.996;3.706;2023-09-30T10:39:59;19.52;;;6.45;;
57093;SDS011;42970;50.996;3.706;2023-09-30T10:53:04;13.70;;;5.80;;
57093;SDS011;42970;50.996;3.706;2023-09-30T10:55:31;19.45;;;5.85;;
57093;SDS011;42970;50.996;3.706;2023-09-30T10:57:57;14.95;;;4.32;;
57093;SDS011;42970;50.996;3.706;2023-09-30T11:00:23;20.30;;;5.57;;
57093;SDS011;42970;50.996;3.706;2023-09-30T11:02:52;17.58;;;5.22;;
57093;SDS011;42970;50.996;3.706;2023-09-30T11:05:18;18.75;;;4.95;;
57093;SDS011;42970;50.996;3.706;2023-09-30T11:07:47;20.80;;;5.17;;
57093;SDS011;42970;50.996;3.706;2023-09-30T11:10:15;16.73;;;4.68;;
57093;SDS011;42970;50.996;3.706;2023-09-30T11:12:54;17.90;;;4.32;;
57093;SDS011;42970;50.996;3.706;2023-09-30T11:15:20;14.77;;;5.07;;
57093;SDS011;42970;50.996;3.706;2023-09-30T11:32:26;12.55;;;3.03;;
57093;SDS011;42970;50.996;3.706;2023-09-30T11:34:53;11.53;;;3.03;;
57093;SDS011;42970;50.996;3.706;2023-09-30T11:37:19;13.45;;;3.05;;
57093;SDS011;42970;50.996;3.706;2023-09-30T11:39:46;9.80;;;3.00;;
57093;SDS011;42970;50.996;3.706;2023-09-30T11:42:16;13.80;;;2.80;;
57093;SDS011;42970;50.996;3.706;2023-09-30T11:44:46;11.98;;;2.72;;
57093;SDS011;42970;50.996;3.706;2023-09-30T11:47:13;13.02;;;3.00;;
57093;SDS011;42970;50.996;3.706;2023-09-30T11:49:40;12.20;;;3.15;;
57093;SDS011;42970;50.996;3.706;2023-09-30T11:54:43;13.35;;;2.60;;
57093;SDS011;42970;50.996;3.706;2023-09-30T11:57:11;14.60;;;3.33;;
57093;SDS011;42970;50.996;3.706;2023-09-30T11:59:40;11.57;;;2.80;;
57093;SDS011;42970;50.996;3.706;2023-09-30T12:02:06;8.60;;;2.60;;
57093;SDS011;42970;50.996;3.706;2023-09-30T12:04:36;14.68;;;3.22;;
57093;SDS011;42970;50.996;3.706;2023-09-30T12:07:02;15.68;;;2.78;;
57093;SDS011;42970;50.996;3.706;2023-09-30T12:09:28;13.50;;;2.88;;
57093;SDS011;42970;50.996;3.706;2023-09-30T12:11:54;11.18;;;2.47;;
57093;SDS011;42970;50.996;3.706;2023-09-30T12:14:23;12.75;;;2.50;;
57093;SDS011;42970;50.996;3.706;2023-09-30T12:16:49;9.55;;;2.80;;
57093;SDS011;42970;50.996;3.706;2023-09-30T12:19:18;7.93;;;2.20;;
57093;SDS011;42970;50.996;3.706;2023-09-30T12:21:45;10.32;;;2.10;;
57093;SDS011;42970;50.996;3.706;2023-09-30T12:24:13;11.67;;;2.13;;
57093;SDS011;42970;50.996;3.706;2023-09-30T12:26:46;9.48;;;2.67;;
57093;SDS011;42970;50.996;3.706;2023-09-30T12:29:16;12.07;;;2.92;;
57093;SDS011;42970;50.996;3.706;2023-09-30T12:31:43;13.60;;;3.25;;
57093;SDS011;42970;50.996;3.706;2023-09-30T12:34:13;10.02;;;2.70;;
57093;SDS011;42970;50.996;3.706;2023-09-30T12:36:39;10.68;;;2.25;;
57093;SDS011;42970;50.996;3.706;2023-09-30T12:39:05;9.82;;;2.15;;
57093;SDS011;42970;50.996;3.706;2023-09-30T12:41:36;9.85;;;2.25;;
57093;SDS011;42970;50.996;3.706;2023-09-30T12:44:02;9.65;;;2.65;;
57093;SDS011;42970;50.996;3.706;2023-09-30T12:46:28;11.57;;;2.65;;
57093;SDS011;42970;50.996;3.706;2023-09-30T12:48:54;12.02;;;2.53;;
57093;SDS011;42970;50.996;3.706;2023-09-30T12:51:20;10.68;;;1.92;;
57093;SDS011;42970;50.996;3.706;2023-09-30T12:53:45;11.10;;;2.13;;
57093;SDS011;42970;50.996;3.706;2023-09-30T12:56:11;13.32;;;2.47;;
57093;SDS011;42970;50.996;3.706;2023-09-30T12:58:36;7.95;;;3.10;;
57093;SDS011;42970;50.996;3.706;2023-09-30T13:01:03;9.52;;;2.22;;
57093;SDS011;42970;50.996;3.706;2023-09-30T13:03:29;9.82;;;2.30;;
57093;SDS011;42970;50.996;3.706;2023-09-30T13:05:55;8.88;;;2.08;;
57093;SDS011;42970;50.996;3.706;2023-09-30T13:08:21;9.75;;;2.50;;
57093;SDS011;42970;50.996;3.706;2023-09-30T13:10:46;7.75;;;1.80;;
57093;SDS011;42970;50.996;3.706;2023-09-30T13:13:15;12.25;;;2.47;;
57093;SDS011;42970;50.996;3.706;2023-09-30T13:15:41;14.63;;;2.08;;
57093;SDS011;42970;50.996;3.706;2023-09-30T13:18:06;11.52;;;3.63;;
57093;SDS011;42970;50.996;3.706;2023-09-30T13:20:32;14.90;;;2.40;;
57093;SDS011;42970;50.996;3.706;2023-09-30T13:22:57;12.20;;;2.17;;
57093;SDS011;42970;50.996;3.706;2023-09-30T13:25:23;10.55;;;2.00;;
57093;SDS011;42970;50.996;3.706;2023-09-30T13:27:49;14.88;;;2.45;;
57093;SDS011;42970;50.996;3.706;2023-09-30T13:30:14;6.97;;;1.80;;
57093;SDS011;42970;50.996;3.706;2023-09-30T13:32:40;9.48;;;2.30;;
57093;SDS011;42970;50.996;3.706;2023-09-30T13:35:05;8.38;;;1.90;;
57093;SDS011;42970;50.996;3.706;2023-09-30T13:37:32;8.48;;;2.10;;
57093;SDS011;42970;50.996;3.706;2023-09-30T13:40:01;6.32;;;1.95;;
57093;SDS011;42970;50.996;3.706;2023-09-30T13:42:29;7.85;;;1.65;;
57093;SDS011;42970;50.996;3.706;2023-09-30T13:44:57;10.48;;;2.15;;
57093;SDS011;42970;50.996;3.706;2023-09-30T13:47:24;11.38;;;2.17;;
57093;SDS011;42970;50.996;3.706;2023-09-30T13:49:50;15.70;;;2.00;;
57093;SDS011;42970;50.996;3.706;2023-09-30T13:52:15;16.60;;;2.75;;
57093;SDS011;42970;50.996;3.706;2023-09-30T13:54:41;7.93;;;2.58;;
57093;SDS011;42970;50.996;3.706;2023-09-30T13:57:07;9.38;;;2.83;;
57093;SDS011;42970;50.996;3.706;2023-09-30T13:59:35;7.38;;;1.80;;
57093;SDS011;42970;50.996;3.706;2023-09-30T14:02:02;7.95;;;2.08;;
57093;SDS011;42970;50.996;3.706;2023-09-30T14:04:31;9.43;;;2.63;;
57093;SDS011;42970;50.996;3.706;2023-09-30T14:07:05;7.38;;;1.95;;
57093;SDS011;42970;50.996;3.706;2023-09-30T14:09:32;10.98;;;1.98;;
57093;SDS011;42970;50.996;3.706;2023-09-30T14:11:58;6.63;;;2.13;;
57093;SDS011;42970;50.996;3.706;2023-09-30T14:14:24;5.30;;;1.60;;
57093;SDS011;42970;50.996;3.706;2023-09-30T14:16:50;10.10;;;2.70;;
57093;SDS011;42970;50.996;3.706;2023-09-30T14:19:15;4.70;;;1.65;;
57093;SDS011;42970;50.996;3.706;2023-09-30T14:21:41;12.02;;;2.25;;
57093;SDS011;42970;50.996;3.706;2023-09-30T14:24:07;8.32;;;2.53;;
57093;SDS011;42970;50.996;3.706;2023-09-30T14:26:32;8.35;;;2.28;;
57093;SDS011;42970;50.996;3.706;2023-09-30T14:28:58;7.35;;;2.50;;
57093;SDS011;42970;50.996;3.706;2023-09-30T14:31:24;8.85;;;1.92;;
57093;SDS011;42970;50.996;3.706;2023-09-30T14:33:50;7.82;;;2.78;;
57093;SDS011;42970;50.996;3.706;2023-09-30T14:36:17;17.77;;;2.40;;
57093;SDS011;42970;50.996;3.706;2023-09-30T14:38:46;15.60;;;4.18;;
57093;SDS011;42970;50.996;3.706;2023-09-30T14:41:12;9.05;;;2.22;;
57093;SDS011;42970;50.996;3.706;2023-09-30T14:43:38;15.65;;;3.30;;
57093;SDS011;42970;50.996;3.706;2023-09-30T14:46:04;5.90;;;2.05;;
57093;SDS011;42970;50.996;3.706;2023-09-30T14:48:29;12.95;;;2.28;;
57093;SDS011;42970;50.996;3.706;2023-09-30T14:50:55;7.25;;;2.38;;
57093;SDS011;42970;50.996;3.706;2023-09-30T14:53:21;17.75;;;2.33;;
57093;SDS011;42970;50.996;3.706;2023-09-30T14:55:47;12.98;;;2.42;;
57093;SDS011;42970;50.996;3.706;2023-09-30T14:58:13;11.00;;;2.08;;
57093;SDS011;42970;50.996;3.706;2023-09-30T15:00:38;11.13;;;1.92;;
57093;SDS011;42970;50.996;3.706;2023-09-30T15:03:04;7.20;;;1.95;;
57093;SDS011;42970;50.996;3.706;2023-09-30T15:05:30;6.75;;;1.95;;
57093;SDS011;42970;50.996;3.706;2023-09-30T15:07:56;8.93;;;2.03;;
57093;SDS011;42970;50.996;3.706;2023-09-30T15:10:22;9.43;;;2.35;;
57093;SDS011;42970;50.996;3.706;2023-09-30T15:12:47;7.88;;;2.50;;
57093;SDS011;42970;50.996;3.706;2023-09-30T15:15:13;9.80;;;3.22;;
57093;SDS011;42970;50.996;3.706;2023-09-30T15:17:39;11.10;;;2.80;;
57093;SDS011;42970;50.996;3.706;2023-09-30T15:20:04;6.25;;;1.90;;
57093;SDS011;42970;50.996;3.706;2023-09-30T15:22:32;8.88;;;2.10;;
57093;SDS011;42970;50.996;3.706;2023-09-30T15:24:58;12.40;;;2.38;;
57093;SDS011;42970;50.996;3.706;2023-09-30T15:27:23;17.63;;;2.50;;
57093;SDS011;42970;50.996;3.706;2023-09-30T15:29:50;9.93;;;2.63;;
57093;SDS011;42970;50.996;3.706;2023-09-30T15:32:15;11.07;;;2.47;;
57093;SDS011;42970;50.996;3.706;2023-09-30T15:34:42;7.45;;;2.10;;
57093;SDS011;42970;50.996;3.706;2023-09-30T15:37:07;11.98;;;1.70;;
57093;SDS011;42970;50.996;3.706;2023-09-30T15:39:37;6.72;;;2.50;;
57093;SDS011;42970;50.996;3.706;2023-09-30T15:42:03;7.78;;;2.10;;
57093;SDS011;42970;50.996;3.706;2023-09-30T15:44:29;17.33;;;2.58;;
57093;SDS011;42970;50.996;3.706;2023-09-30T15:46:55;10.55;;;2.17;;